Daugavpils, Latvia
Current Conditions -  °F | °C
As of 11:20 AM on Thursday 23 Oct 2014 (Local Time) from EYVI Reporting Station
Clear Clear  
Wind Chill: 17°   Ceiling: Unl
Heat Index: 27°   Visibility: 6mi
Dew Point: 19°   Wind: 10mph
Humidity: 74%   Direction: 80°E
Pressure: 30.3"   Gusts: NA
Location:  55.88°N, 26.51°E
Report Text: EYVI 230820Z 08009KT 050V120 CAVOK M03/M07 Q1026 NOSIG
Loading
Personal Weather Stations






























Interactive Weather Map
Tropical Storm Tracking
New forecast layout! Learn more

10-Day Weather Forecast

Advertisements
Track Severe Weather on mobile